Time;durP1;ratioP1;P1;durP2;ratioP2;P2;SDS_P1;SDS_P2;PMS_P1;PMS_P2;Temp;Humidity;BMP_temperature;BMP_pressure;BME280_temperature;BME280_humidity;BME280_pressure;Samples;Min_cycle;Max_cycle;Signal;HPM_P1;HPM_P2
2022/04/06 00:01:54;;;;;;;0.40;0.30;;;;;;;;;;6155481;23;20028;-65
2022/04/06 00:04:19;;;;;;;0.47;0.47;;;;;;;;;;6155685;23;19998;-65
2022/04/06 00:06:44;;;;;;;3.30;1.58;;;;;;;;;;6154488;23;19997;-62
2022/04/06 00:09:09;;;;;;;0.77;0.77;;;;;;;;;;6153352;23;19993;-62
2022/04/06 00:11:34;;;;;;;1.02;1.02;;;;;;;;;;6153973;23;20308;-61
2022/04/06 00:14:00;;;;;;;0.13;0.13;;;;;;;;;;6153677;23;20416;-61
2022/04/06 00:16:28;;;;;;;0.47;0.43;;;;;;;;;;6153780;23;19997;-59
2022/04/06 00:18:53;;;;;;;1.30;1.20;;;;;;;;;;6153630;23;19993;-61
2022/04/06 00:21:19;;;;;;;1.40;0.75;;;;;;;;;;6153506;23;19998;-61
2022/04/06 00:23:44;;;;;;;1.17;1.17;;;;;;;;;;6153904;23;20001;-61
2022/04/06 00:26:09;;;;;;;2.13;1.00;;;;;;;;;;6153585;23;20004;-62
2022/04/06 00:28:34;;;;;;;1.00;0.77;;;;;;;;;;6153924;23;19997;-60
2022/04/06 00:31:00;;;;;;;0.70;0.70;;;;;;;;;;6153042;23;19998;-61
2022/04/06 00:33:25;;;;;;;0.22;0.22;;;;;;;;;;6153252;23;20235;-61
2022/04/06 00:35:53;;;;;;;0.20;0.20;;;;;;;;;;6153474;23;20005;-61
2022/04/06 00:38:18;;;;;;;0.00;0.00;;;;;;;;;;6153502;23;20450;-61
2022/04/06 00:40:43;;;;;;;0.00;0.00;;;;;;;;;;6153926;23;20002;-60
2022/04/06 00:43:12;;;;;;;0.32;0.32;;;;;;;;;;6156042;23;20081;-65
2022/04/06 00:45:38;;;;;;;0.75;0.75;;;;;;;;;;6154550;23;20009;-65
2022/04/06 00:48:04;;;;;;;0.80;0.40;;;;;;;;;;6153494;23;20001;-65
2022/04/06 00:50:30;;;;;;;3.30;1.88;;;;;;;;;;6155526;23;20004;-64
2022/04/06 00:52:57;;;;;;;0.10;0.10;;;;;;;;;;6155310;23;20005;-63
2022/04/06 00:55:27;;;;;;;0.95;0.70;;;;;;;;;;6155893;23;20336;-64
2022/04/06 00:57:52;;;;;;;0.43;0.20;;;;;;;;;;6156140;23;20013;-65
2022/04/06 01:00:17;;;;;;;0.35;0.30;;;;;;;;;;6157713;23;20005;-66
2022/04/06 01:02:43;;;;;;;1.27;1.17;;;;;;;;;;6157515;23;19997;-65
2022/04/06 01:05:08;;;;;;;0.85;0.85;;;;;;;;;;6157952;23;20001;-66
2022/04/06 01:07:34;;;;;;;0.05;0.05;;;;;;;;;;6157921;23;20024;-68
2022/04/06 01:09:59;;;;;;;0.00;0.00;;;;;;;;;;6157897;23;20000;-66
2022/04/06 01:12:26;;;;;;;0.45;0.45;;;;;;;;;;6157638;23;19997;-67
2022/04/06 01:14:51;;;;;;;2.03;1.92;;;;;;;;;;6157368;23;20076;-67
2022/04/06 01:17:16;;;;;;;0.15;0.15;;;;;;;;;;6157058;23;20029;-66
2022/04/06 01:19:44;;;;;;;1.20;0.93;;;;;;;;;;6157061;23;20033;-64
2022/04/06 01:22:13;;;;;;;0.10;0.10;;;;;;;;;;6156667;23;20008;-64
2022/04/06 01:24:39;;;;;;;0.32;0.32;;;;;;;;;;6156726;23;20000;-67
2022/04/06 01:27:04;;;;;;;0.00;0.00;;;;;;;;;;6157102;23;20006;-66
2022/04/06 01:29:29;;;;;;;28.95;2.53;;;;;;;;;;6156987;23;19997;-65
2022/04/06 01:31:55;;;;;;;0.98;0.98;;;;;;;;;;6156411;23;19997;-67
2022/04/06 01:34:20;;;;;;;0.40;0.22;;;;;;;;;;6156495;23;20002;-64
2022/04/06 01:36:45;;;;;;;0.32;0.28;;;;;;;;;;6156531;23;20012;-65
2022/04/06 01:39:10;;;;;;;0.20;0.20;;;;;;;;;;6156107;23;20033;-66
2022/04/06 01:41:37;;;;;;;0.40;0.40;;;;;;;;;;6155485;23;20033;-66
2022/04/06 01:44:03;;;;;;;1.02;0.38;;;;;;;;;;6156183;23;20072;-65
2022/04/06 01:46:28;;;;;;;1.27;1.23;;;;;;;;;;6156454;23;20032;-65
2022/04/06 01:54:22;;;;;;;7.13;0.57;;;;;;;;;;6156438;23;20024;-63
2022/04/06 01:56:47;;;;;;;0.13;0.13;;;;;;;;;;6157033;23;20080;-62
2022/04/06 01:59:12;;;;;;;0.10;0.10;;;;;;;;;;6156850;23;20001;-63
2022/04/06 02:01:37;;;;;;;0.75;0.75;;;;;;;;;;6156870;23;19993;-64
2022/04/06 02:04:06;;;;;;;0.10;0.10;;;;;;;;;;6156903;23;20020;-63
2022/04/06 02:06:34;;;;;;;0.00;0.00;;;;;;;;;;6156827;23;19997;-63
2022/04/06 02:08:59;;;;;;;0.17;0.17;;;;;;;;;;6157121;23;20440;-64
2022/04/06 02:11:25;;;;;;;0.00;0.00;;;;;;;;;;6157091;23;19998;-64
2022/04/06 02:13:50;;;;;;;1.25;1.20;;;;;;;;;;6156997;23;20000;-64
2022/04/06 02:16:15;;;;;;;0.00;0.00;;;;;;;;;;6157058;23;20005;-64
2022/04/06 02:18:41;;;;;;;0.63;0.63;;;;;;;;;;6156962;23;20013;-64
2022/04/06 02:21:06;;;;;;;1.98;1.88;;;;;;;;;;6156911;23;20001;-63
2022/04/06 02:23:31;;;;;;;0.73;0.73;;;;;;;;;;6156655;23;20412;-64
2022/04/06 02:25:57;;;;;;;0.00;0.00;;;;;;;;;;6156741;23;20011;-63
2022/04/06 02:28:22;;;;;;;0.32;0.32;;;;;;;;;;6156558;23;20017;-64
2022/04/06 02:30:47;;;;;;;0.90;0.90;;;;;;;;;;6156992;23;19994;-65
2022/04/06 02:33:12;;;;;;;0.98;0.98;;;;;;;;;;6156650;23;20021;-64
2022/04/06 02:35:37;;;;;;;2.83;1.55;;;;;;;;;;6156788;23;20029;-65
2022/04/06 02:38:03;;;;;;;0.30;0.22;;;;;;;;;;6156883;23;20001;-62
2022/04/06 02:40:28;;;;;;;0.10;0.10;;;;;;;;;;6156922;23;20001;-63
2022/04/06 02:42:53;;;;;;;2.03;1.02;;;;;;;;;;6156693;23;20008;-63
2022/04/06 02:45:18;;;;;;;0.05;0.05;;;;;;;;;;6156411;23;20431;-64
2022/04/06 02:47:43;;;;;;;0.00;0.00;;;;;;;;;;6155878;23;20004;-65
2022/04/06 02:50:09;;;;;;;0.30;0.30;;;;;;;;;;6155605;23;20474;-63
2022/04/06 02:52:34;;;;;;;0.85;0.52;;;;;;;;;;6155711;23;20005;-63
2022/04/06 02:54:59;;;;;;;0.73;0.73;;;;;;;;;;6155050;23;20021;-64
2022/04/06 02:57:25;;;;;;;0.00;0.00;;;;;;;;;;6155931;23;20416;-63
2022/04/06 02:59:50;;;;;;;0.65;0.52;;;;;;;;;;6156073;23;20025;-64
2022/04/06 03:02:16;;;;;;;0.00;0.00;;;;;;;;;;6156092;23;19998;-63
2022/04/06 03:04:41;;;;;;;0.00;0.00;;;;;;;;;;6155660;23;20001;-65
2022/04/06 03:07:07;;;;;;;1.33;1.23;;;;;;;;;;6155287;23;20025;-64
2022/04/06 03:09:32;;;;;;;1.30;1.08;;;;;;;;;;6155283;23;19993;-65
2022/04/06 03:11:59;;;;;;;0.10;0.10;;;;;;;;;;6155332;23;19997;-63
2022/04/06 03:14:24;;;;;;;3.15;0.40;;;;;;;;;;6155665;23;20032;-62
2022/04/06 03:16:49;;;;;;;0.57;0.57;;;;;;;;;;6155044;23;19997;-62
2022/04/06 03:19:14;;;;;;;3.72;0.38;;;;;;;;;;6155388;23;20004;-62
2022/04/06 03:21:40;;;;;;;0.00;0.00;;;;;;;;;;6155484;23;20010;-63
2022/04/06 03:24:05;;;;;;;1.45;1.33;;;;;;;;;;6155313;23;20024;-63
2022/04/06 03:26:30;;;;;;;1.35;1.25;;;;;;;;;;6157218;23;19998;-62
2022/04/06 03:28:56;;;;;;;0.03;0.03;;;;;;;;;;6155251;23;20312;-63
2022/04/06 03:31:21;;;;;;;0.00;0.00;;;;;;;;;;6154440;23;20004;-63
2022/04/06 03:33:46;;;;;;;1.17;1.17;;;;;;;;;;6154917;23;20051;-62
2022/04/06 03:36:11;;;;;;;0.10;0.10;;;;;;;;;;6154235;23;20084;-63
2022/04/06 03:38:36;;;;;;;0.17;0.17;;;;;;;;;;6154273;23;20009;-63
2022/04/06 03:41:02;;;;;;;1.20;0.65;;;;;;;;;;6154582;23;20025;-62
2022/04/06 03:43:28;;;;;;;0.08;0.08;;;;;;;;;;6154141;23;20455;-62
2022/04/06 03:45:54;;;;;;;0.00;0.00;;;;;;;;;;6154237;23;20159;-62
2022/04/06 03:48:22;;;;;;;0.00;0.00;;;;;;;;;;6154272;23;19998;-64
2022/04/06 03:50:47;;;;;;;0.00;0.00;;;;;;;;;;6154115;23;20226;-63
2022/04/06 03:53:12;;;;;;;0.00;0.00;;;;;;;;;;6153360;23;20079;-64
2022/04/06 03:55:37;;;;;;;0.32;0.30;;;;;;;;;;6153519;23;20095;-64
2022/04/06 03:58:03;;;;;;;0.38;0.38;;;;;;;;;;6153811;23;20382;-63
2022/04/06 04:00:28;;;;;;;0.22;0.22;;;;;;;;;;6153985;23;19997;-63
2022/04/06 04:02:53;;;;;;;0.32;0.32;;;;;;;;;;6153490;23;20123;-62
2022/04/06 04:05:18;;;;;;;0.00;0.00;;;;;;;;;;6154117;23;20030;-62
2022/04/06 04:07:44;;;;;;;1.15;1.15;;;;;;;;;;6154224;23;20096;-61
2022/04/06 04:10:09;;;;;;;0.00;0.00;;;;;;;;;;6154109;23;20021;-64
2022/04/06 04:12:35;;;;;;;0.13;0.13;;;;;;;;;;6155361;23;19998;-63
2022/04/06 04:15:01;;;;;;;0.00;0.00;;;;;;;;;;6156158;23;20438;-63
2022/04/06 04:17:26;;;;;;;0.10;0.10;;;;;;;;;;6156219;23;20456;-64
2022/04/06 04:19:51;;;;;;;0.00;0.00;;;;;;;;;;6155902;23;20423;-64
2022/04/06 04:22:16;;;;;;;0.17;0.15;;;;;;;;;;6155285;23;20087;-63
2022/04/06 04:24:41;;;;;;;0.00;0.00;;;;;;;;;;6155080;23;20418;-64
2022/04/06 04:27:07;;;;;;;0.20;0.20;;;;;;;;;;6154913;23;20008;-63
2022/04/06 04:29:32;;;;;;;0.30;0.30;;;;;;;;;;6154945;23;19997;-63
2022/04/06 04:31:58;;;;;;;0.00;0.00;;;;;;;;;;6153397;23;19998;-64
2022/04/06 04:34:23;;;;;;;0.00;0.00;;;;;;;;;;6152244;23;19997;-64
2022/04/06 04:36:48;;;;;;;0.00;0.00;;;;;;;;;;6152230;23;20009;-63
2022/04/06 04:39:14;;;;;;;0.00;0.00;;;;;;;;;;6152210;23;20001;-64
2022/04/06 04:41:39;;;;;;;2.40;0.55;;;;;;;;;;6152663;23;19998;-65
2022/04/06 04:44:05;;;;;;;0.00;0.00;;;;;;;;;;6152825;23;19993;-64
2022/04/06 04:46:33;;;;;;;0.00;0.00;;;;;;;;;;6152362;23;19998;-65
2022/04/06 04:48:58;;;;;;;0.00;0.00;;;;;;;;;;6151691;23;20005;-64
2022/04/06 04:51:23;;;;;;;0.00;0.00;;;;;;;;;;6153066;23;20002;-64
2022/04/06 04:53:48;;;;;;;0.28;0.28;;;;;;;;;;6151488;23;20001;-65
2022/04/06 04:56:15;;;;;;;0.45;0.45;;;;;;;;;;6152732;23;20013;-64
2022/04/06 04:58:40;;;;;;;0.00;0.00;;;;;;;;;;6152687;23;20012;-64
2022/04/06 05:01:07;;;;;;;1.85;1.85;;;;;;;;;;6154015;23;20005;-63
2022/04/06 05:03:32;;;;;;;0.00;0.00;;;;;;;;;;6152366;23;20005;-65
2022/04/06 05:05:58;;;;;;;0.00;0.00;;;;;;;;;;6152431;23;20004;-65
2022/04/06 05:08:24;;;;;;;1.73;1.65;;;;;;;;;;6153108;23;20008;-64
2022/04/06 05:10:49;;;;;;;0.90;0.90;;;;;;;;;;6153322;23;19993;-65
2022/04/06 05:13:15;;;;;;;0.00;0.00;;;;;;;;;;6153788;23;20005;-63
2022/04/06 05:15:40;;;;;;;0.80;0.43;;;;;;;;;;6126527;23;20052;-65
2022/04/06 05:18:05;;;;;;;0.13;0.13;;;;;;;;;;6152447;23;19997;-65
2022/04/06 05:20:31;;;;;;;0.25;0.10;;;;;;;;;;6153306;23;20001;-64
2022/04/06 05:22:56;;;;;;;0.00;0.00;;;;;;;;;;6152035;23;20081;-64
2022/04/06 05:25:21;;;;;;;0.00;0.00;;;;;;;;;;6152471;23;20438;-64
2022/04/06 05:27:48;;;;;;;0.00;0.00;;;;;;;;;;6153756;23;20005;-64
2022/04/06 05:30:14;;;;;;;0.00;0.00;;;;;;;;;;6154331;23;20136;-64
2022/04/06 05:32:39;;;;;;;0.00;0.00;;;;;;;;;;6153770;23;20033;-64
2022/04/06 05:35:06;;;;;;;0.00;0.00;;;;;;;;;;6153381;23;19998;-64
2022/04/06 05:37:32;;;;;;;0.00;0.00;;;;;;;;;;6154054;23;20010;-65
2022/04/06 05:39:58;;;;;;;0.00;0.00;;;;;;;;;;6154252;23;20001;-64
2022/04/06 05:42:23;;;;;;;0.00;0.00;;;;;;;;;;6154654;23;20023;-65
2022/04/06 05:44:48;;;;;;;0.00;0.00;;;;;;;;;;6154041;23;20002;-65
2022/04/06 05:47:13;;;;;;;0.00;0.00;;;;;;;;;;6153802;23;20009;-65
2022/04/06 05:49:38;;;;;;;0.00;0.00;;;;;;;;;;6153924;23;20024;-66
2022/04/06 05:52:04;;;;;;;0.08;0.08;;;;;;;;;;6154104;23;20008;-65
2022/04/06 05:54:29;;;;;;;0.00;0.00;;;;;;;;;;6153415;23;20021;-65
2022/04/06 05:56:54;;;;;;;0.20;0.20;;;;;;;;;;6154195;23;20020;-65
2022/04/06 05:59:19;;;;;;;0.00;0.00;;;;;;;;;;6155004;23;20427;-64
2022/04/06 06:01:45;;;;;;;0.00;0.00;;;;;;;;;;6154974;23;20021;-65
2022/04/06 06:04:10;;;;;;;0.00;0.00;;;;;;;;;;6155227;23;20032;-66
2022/04/06 06:06:35;;;;;;;0.00;0.00;;;;;;;;;;6154693;23;20056;-61
2022/04/06 06:09:01;;;;;;;0.00;0.00;;;;;;;;;;6155745;23;20006;-61
2022/04/06 06:11:26;;;;;;;0.00;0.00;;;;;;;;;;6154113;23;19993;-61
2022/04/06 06:13:51;;;;;;;0.00;0.00;;;;;;;;;;6155407;23;20037;-63
2022/04/06 06:16:16;;;;;;;0.00;0.00;;;;;;;;;;6155397;23;19997;-65
2022/04/06 06:18:41;;;;;;;0.00;0.00;;;;;;;;;;6152658;23;20427;-64
2022/04/06 06:21:07;;;;;;;0.00;0.00;;;;;;;;;;6154177;23;20320;-64
2022/04/06 06:23:32;;;;;;;0.00;0.00;;;;;;;;;;6128212;23;20001;-63
2022/04/06 06:25:57;;;;;;;0.00;0.00;;;;;;;;;;6153925;23;20376;-63
2022/04/06 06:28:24;;;;;;;0.00;0.00;;;;;;;;;;6154564;23;20001;-64
2022/04/06 06:30:49;;;;;;;0.00;0.00;;;;;;;;;;6154553;23;20005;-63
2022/04/06 06:33:16;;;;;;;0.00;0.00;;;;;;;;;;6154380;23;20002;-63
2022/04/06 06:35:41;;;;;;;0.00;0.00;;;;;;;;;;6154079;23;20032;-62
2022/04/06 06:38:07;;;;;;;0.00;0.00;;;;;;;;;;6153914;23;19997;-63
2022/04/06 06:40:32;;;;;;;0.00;0.00;;;;;;;;;;6154615;23;20447;-62
2022/04/06 06:42:57;;;;;;;0.00;0.00;;;;;;;;;;6154142;23;20002;-61
2022/04/06 06:45:22;;;;;;;0.00;0.00;;;;;;;;;;6153827;23;19993;-64
2022/04/06 06:47:48;;;;;;;0.00;0.00;;;;;;;;;;6152282;23;20028;-63
2022/04/06 06:50:14;;;;;;;0.00;0.00;;;;;;;;;;6152617;23;20056;-64
2022/04/06 06:52:39;;;;;;;0.00;0.00;;;;;;;;;;6153036;23;19993;-64
2022/04/06 06:55:05;;;;;;;0.00;0.00;;;;;;;;;;6152007;23;20782;-64
2022/04/06 06:57:31;;;;;;;0.00;0.00;;;;;;;;;;6153490;23;20012;-65
2022/04/06 06:59:56;;;;;;;0.00;0.00;;;;;;;;;;6152799;23;20025;-66
2022/04/06 07:02:21;;;;;;;0.00;0.00;;;;;;;;;;6154220;23;20092;-63
2022/04/06 07:04:47;;;;;;;0.00;0.00;;;;;;;;;;6154557;23;20097;-63
2022/04/06 07:07:12;;;;;;;0.00;0.00;;;;;;;;;;6154028;23;19993;-63
2022/04/06 07:09:37;;;;;;;0.00;0.00;;;;;;;;;;6154082;23;20016;-63
2022/04/06 07:12:03;;;;;;;0.00;0.00;;;;;;;;;;6152635;23;20331;-63
2022/04/06 07:14:28;;;;;;;0.00;0.00;;;;;;;;;;6153865;23;20446;-63
2022/04/06 07:16:54;;;;;;;0.00;0.00;;;;;;;;;;6152600;23;19998;-65
2022/04/06 07:19:20;;;;;;;0.00;0.00;;;;;;;;;;6153157;23;20006;-64
2022/04/06 07:21:46;;;;;;;0.00;0.00;;;;;;;;;;6153357;23;20372;-63
2022/04/06 07:24:11;;;;;;;0.00;0.00;;;;;;;;;;6153063;23;20012;-63
2022/04/06 07:26:36;;;;;;;0.00;0.00;;;;;;;;;;6152729;23;20002;-63
2022/04/06 07:29:01;;;;;;;0.00;0.00;;;;;;;;;;6152920;23;20005;-64
2022/04/06 07:31:26;;;;;;;0.00;0.00;;;;;;;;;;6153605;23;20396;-63
2022/04/06 07:33:52;;;;;;;0.75;0.75;;;;;;;;;;6153581;23;20080;-62
2022/04/06 07:36:20;;;;;;;0.38;0.38;;;;;;;;;;6153505;23;20005;-62
2022/04/06 07:38:45;;;;;;;0.00;0.00;;;;;;;;;;6153803;23;20348;-63
2022/04/06 07:41:11;;;;;;;0.40;0.40;;;;;;;;;;6155370;23;19998;-64
2022/04/06 07:43:36;;;;;;;0.00;0.00;;;;;;;;;;6155416;23;20384;-64
2022/04/06 07:46:01;;;;;;;0.00;0.00;;;;;;;;;;6155474;23;20412;-64
2022/04/06 07:48:30;;;;;;;0.63;0.63;;;;;;;;;;6155378;23;20029;-64
2022/04/06 07:50:55;;;;;;;0.10;0.10;;;;;;;;;;6155659;23;19998;-64
2022/04/06 07:53:21;;;;;;;0.00;0.00;;;;;;;;;;6155630;23;20001;-64
2022/04/06 07:55:47;;;;;;;1.65;1.23;;;;;;;;;;6155233;23;20021;-63
2022/04/06 07:58:13;;;;;;;1.10;0.88;;;;;;;;;;6155620;23;20025;-63
2022/04/06 08:00:38;;;;;;;0.00;0.00;;;;;;;;;;6156098;23;20005;-64
2022/04/06 08:03:03;;;;;;;0.43;0.20;;;;;;;;;;6155830;23;20430;-64
2022/04/06 08:05:28;;;;;;;0.20;0.20;;;;;;;;;;6155438;23;20072;-64
2022/04/06 08:07:54;;;;;;;0.00;0.00;;;;;;;;;;6154454;23;20076;-64
2022/04/06 08:10:20;;;;;;;0.63;0.63;;;;;;;;;;6154367;23;20399;-64
2022/04/06 08:12:46;;;;;;;0.35;0.35;;;;;;;;;;6154172;23;20005;-63
2022/04/06 08:15:11;;;;;;;0.60;0.60;;;;;;;;;;6152870;23;20104;-65
2022/04/06 08:17:38;;;;;;;0.10;0.10;;;;;;;;;;6152685;23;20021;-62
2022/04/06 08:20:05;;;;;;;0.85;0.80;;;;;;;;;;6153233;23;20076;-62
2022/04/06 08:22:31;;;;;;;0.00;0.00;;;;;;;;;;6152733;23;19997;-63
2022/04/06 08:24:57;;;;;;;0.08;0.08;;;;;;;;;;6153877;23;20033;-63
2022/04/06 08:27:22;;;;;;;0.08;0.05;;;;;;;;;;6152137;23;20000;-63
2022/04/06 08:29:47;;;;;;;0.00;0.00;;;;;;;;;;6153373;23;19993;-62
2022/04/06 08:32:14;;;;;;;0.30;0.30;;;;;;;;;;6153071;23;20332;-62
2022/04/06 08:34:39;;;;;;;1.52;1.48;;;;;;;;;;6154171;23;20080;-61
2022/04/06 08:37:04;;;;;;;0.10;0.10;;;;;;;;;;6154489;23;20359;-62
2022/04/06 08:39:29;;;;;;;0.30;0.30;;;;;;;;;;6154019;23;20036;-63
2022/04/06 08:41:55;;;;;;;0.00;0.00;;;;;;;;;;6154062;23;20025;-62
2022/04/06 08:44:20;;;;;;;0.08;0.08;;;;;;;;;;6153904;23;20040;-62
2022/04/06 08:46:47;;;;;;;0.05;0.05;;;;;;;;;;6154107;23;19997;-62
2022/04/06 08:49:12;;;;;;;1.20;0.95;;;;;;;;;;6154145;23;20318;-62
2022/04/06 08:51:40;;;;;;;1.35;0.43;;;;;;;;;;6153796;23;19993;-63
2022/04/06 08:54:05;;;;;;;11.40;3.00;;;;;;;;;;6153344;23;20017;-62
2022/04/06 08:56:30;;;;;;;0.77;0.77;;;;;;;;;;6154267;23;20097;-62
2022/04/06 08:58:58;;;;;;;0.00;0.00;;;;;;;;;;6154201;23;20017;-61
2022/04/06 09:01:23;;;;;;;0.00;0.00;;;;;;;;;;6154354;23;19994;-62
2022/04/06 09:03:49;;;;;;;0.00;0.00;;;;;;;;;;6155574;23;20048;-63
2022/04/06 09:06:14;;;;;;;1.17;1.10;;;;;;;;;;6156029;23;20002;-61
2022/04/06 09:08:40;;;;;;;0.75;0.75;;;;;;;;;;6156214;23;20316;-64
2022/04/06 09:11:07;;;;;;;0.30;0.30;;;;;;;;;;6154287;23;20367;-61
2022/04/06 09:13:33;;;;;;;0.00;0.00;;;;;;;;;;6154458;23;20006;-62
2022/04/06 09:16:01;;;;;;;0.00;0.00;;;;;;;;;;6154500;23;20069;-62
2022/04/06 09:18:33;;;;;;;1.65;0.85;;;;;;;;;;6155255;23;20004;-62
2022/04/06 09:21:00;;;;;;;0.10;0.10;;;;;;;;;;6153964;23;20009;-62
2022/04/06 09:23:25;;;;;;;0.47;0.47;;;;;;;;;;6153850;23;20033;-60
2022/04/06 09:25:50;;;;;;;0.30;0.30;;;;;;;;;;6154178;23;20680;-61
2022/04/06 09:28:15;;;;;;;1.08;0.85;;;;;;;;;;6153206;23;20001;-62
2022/04/06 09:30:42;;;;;;;0.30;0.30;;;;;;;;;;6155745;23;20332;-63
2022/04/06 09:33:11;;;;;;;1.38;0.55;;;;;;;;;;6129511;23;20029;-63
2022/04/06 09:35:37;;;;;;;0.20;0.20;;;;;;;;;;6155720;23;20033;-63
2022/04/06 09:38:08;;;;;;;0.00;0.00;;;;;;;;;;6156647;23;20005;-63
2022/04/06 09:40:33;;;;;;;0.43;0.43;;;;;;;;;;6156332;23;20412;-63
2022/04/06 09:42:58;;;;;;;0.73;0.47;;;;;;;;;;6156758;23;20017;-63
2022/04/06 09:48:13;;;;;;;0.40;0.40;;;;;;;;;;6156678;23;20092;-62
2022/04/06 09:50:38;;;;;;;0.40;0.40;;;;;;;;;;6156863;23;20422;-63
2022/04/06 09:53:05;;;;;;;0.57;0.57;;;;;;;;;;6156643;23;20395;-62
2022/04/06 09:55:31;;;;;;;0.20;0.20;;;;;;;;;;6156662;23;20076;-62
2022/04/06 09:57:58;;;;;;;0.00;0.00;;;;;;;;;;6156695;23;20416;-64
2022/04/06 10:00:28;;;;;;;0.40;0.40;;;;;;;;;;6155434;23;20479;-63
2022/04/06 10:03:00;;;;;;;0.00;0.00;;;;;;;;;;6152729;23;20012;-62
2022/04/06 10:05:27;;;;;;;0.10;0.10;;;;;;;;;;6153659;23;20005;-63
2022/04/06 10:07:53;;;;;;;0.30;0.30;;;;;;;;;;6154317;23;20009;-64
2022/04/06 10:10:21;;;;;;;8.63;1.33;;;;;;;;;;6153987;23;19997;-62
2022/04/06 10:12:47;;;;;;;1.33;0.60;;;;;;;;;;6153576;23;20009;-62
2022/04/06 10:15:13;;;;;;;0.00;0.00;;;;;;;;;;6153827;23;20017;-62
2022/04/06 10:17:38;;;;;;;0.00;0.00;;;;;;;;;;6153626;23;20386;-62
2022/04/06 10:20:09;;;;;;;0.00;0.00;;;;;;;;;;6153685;23;20447;-63
2022/04/06 10:22:55;;;;;;;0.10;0.10;;;;;;;;;;6154531;23;20070;-62
2022/04/06 10:25:26;;;;;;;0.75;0.75;;;;;;;;;;6152788;23;20084;-62
2022/04/06 10:27:53;;;;;;;0.05;0.05;;;;;;;;;;6153762;23;20004;-62
2022/04/06 10:30:22;;;;;;;0.00;0.00;;;;;;;;;;6154355;23;20029;-62
2022/04/06 10:32:51;;;;;;;0.00;0.00;;;;;;;;;;6154290;23;20001;-61
2022/04/06 10:35:16;;;;;;;0.10;0.10;;;;;;;;;;6153564;23;20024;-62
2022/04/06 10:37:48;;;;;;;0.07;0.07;;;;;;;;;;6153391;23;19998;-62
2022/04/06 10:40:13;;;;;;;0.10;0.10;;;;;;;;;;6153126;23;20259;-61
2022/04/06 10:42:41;;;;;;;1.65;0.45;;;;;;;;;;6153507;23;20001;-62
2022/04/06 10:45:24;;;;;;;0.00;0.00;;;;;;;;;;6153526;23;20008;-61
2022/04/06 10:48:08;;;;;;;0.00;0.00;;;;;;;;;;6153360;23;20068;-61
2022/04/06 10:50:33;;;;;;;2.05;0.77;;;;;;;;;;6153540;23;19994;-62
2022/04/06 10:53:17;;;;;;;1.00;0.73;;;;;;;;;;6153621;23;20060;-62
2022/04/06 10:55:54;;;;;;;0.60;0.10;;;;;;;;;;6153501;23;20053;-62
2022/04/06 10:58:23;;;;;;;0.60;0.60;;;;;;;;;;6153685;23;20010;-62
2022/04/06 11:01:09;;;;;;;0.35;0.22;;;;;;;;;;6153329;23;20008;-61
2022/04/06 11:03:36;;;;;;;0.10;0.10;;;;;;;;;;6152739;23;20029;-62
2022/04/06 11:06:01;;;;;;;0.17;0.17;;;;;;;;;;6152653;23;20016;-60
2022/04/06 11:11:45;;;;;;;0.17;0.17;;;;;;;;;;6153953;23;20067;-63
2022/04/06 11:14:12;;;;;;;0.08;0.08;;;;;;;;;;6153158;23;20028;-62
2022/04/06 11:16:43;;;;;;;0.00;0.00;;;;;;;;;;6152735;23;19997;-63
2022/04/06 11:19:08;;;;;;;2.00;1.15;;;;;;;;;;6153410;23;20001;-60
2022/04/06 11:21:34;;;;;;;0.93;0.45;;;;;;;;;;6153803;23;19997;-61
2022/04/06 11:23:59;;;;;;;0.00;0.00;;;;;;;;;;6153961;23;20009;-61
2022/04/06 11:26:25;;;;;;;0.00;0.00;;;;;;;;;;6153158;23;20006;-61
2022/04/06 11:28:58;;;;;;;0.00;0.00;;;;;;;;;;6153766;23;20475;-62
2022/04/06 11:31:23;;;;;;;0.93;0.90;;;;;;;;;;6126842;23;20002;-62
2022/04/06 11:33:49;;;;;;;0.00;0.00;;;;;;;;;;6153361;23;20096;-62
2022/04/06 11:36:15;;;;;;;0.73;0.73;;;;;;;;;;6152701;23;20084;-62
2022/04/06 11:38:40;;;;;;;0.00;0.00;;;;;;;;;;6153279;23;20089;-61
2022/04/06 11:41:05;;;;;;;0.00;0.00;;;;;;;;;;6151357;23;20025;-61
2022/04/06 11:43:31;;;;;;;5.00;0.70;;;;;;;;;;6152810;23;20008;-61
2022/04/06 11:45:59;;;;;;;0.20;0.20;;;;;;;;;;6152484;23;20109;-62
2022/04/06 11:48:37;;;;;;;1.15;1.15;;;;;;;;;;6153124;23;20502;-61
2022/04/06 11:51:05;;;;;;;0.50;0.40;;;;;;;;;;6152538;23;20004;-60
2022/04/06 11:53:30;;;;;;;0.00;0.00;;;;;;;;;;6152543;23;20002;-61
2022/04/06 11:55:56;;;;;;;0.00;0.00;;;;;;;;;;6153331;23;20027;-62
2022/04/06 11:58:28;;;;;;;0.90;0.90;;;;;;;;;;6153658;23;20076;-61
2022/04/06 12:00:59;;;;;;;0.20;0.20;;;;;;;;;;6153988;23;20005;-61
2022/04/06 12:03:32;;;;;;;0.38;0.38;;;;;;;;;;6154114;23;20005;-61
2022/04/06 12:05:57;;;;;;;0.20;0.20;;;;;;;;;;6153611;23;19997;-62
2022/04/06 12:08:23;;;;;;;0.10;0.10;;;;;;;;;;6152956;23;19998;-61
2022/04/06 12:10:52;;;;;;;6.65;0.75;;;;;;;;;;6153340;23;20069;-62
2022/04/06 12:13:18;;;;;;;0.57;0.57;;;;;;;;;;6151016;23;20001;-62
2022/04/06 12:15:44;;;;;;;0.20;0.20;;;;;;;;;;6153051;23;20025;-62
2022/04/06 12:18:10;;;;;;;7.97;1.67;;;;;;;;;;6152658;23;20007;-63
2022/04/06 12:20:35;;;;;;;0.43;0.43;;;;;;;;;;6153266;23;19997;-63
2022/04/06 12:23:01;;;;;;;0.00;0.00;;;;;;;;;;6152938;23;20005;-63
2022/04/06 12:25:27;;;;;;;2.72;2.63;;;;;;;;;;6153449;23;20009;-63
2022/04/06 12:28:08;;;;;;;0.65;0.65;;;;;;;;;;6153223;23;20001;-62
2022/04/06 12:30:33;;;;;;;0.20;0.20;;;;;;;;;;6153144;23;19997;-63
2022/04/06 12:32:59;;;;;;;1.08;1.08;;;;;;;;;;6152809;23;20052;-62
2022/04/06 12:35:24;;;;;;;0.00;0.00;;;;;;;;;;6127173;23;20604;-63
2022/04/06 12:37:50;;;;;;;0.13;0.13;;;;;;;;;;6154115;23;20005;-63
2022/04/06 12:40:25;;;;;;;2.92;1.02;;;;;;;;;;6155295;23;20005;-63
2022/04/06 12:42:50;;;;;;;0.73;0.43;;;;;;;;;;6155483;23;19997;-63
2022/04/06 12:45:18;;;;;;;0.45;0.45;;;;;;;;;;6155097;23;20098;-63
2022/04/06 12:47:43;;;;;;;0.20;0.20;;;;;;;;;;6155393;23;20435;-62
2022/04/06 12:50:12;;;;;;;1.63;1.52;;;;;;;;;;6154776;23;20000;-62
2022/04/06 12:52:37;;;;;;;9.13;0.43;;;;;;;;;;6155914;23;20001;-64
2022/04/06 12:55:06;;;;;;;0.25;0.25;;;;;;;;;;6154314;23;20056;-64
2022/04/06 12:57:32;;;;;;;0.00;0.00;;;;;;;;;;6155265;23;20013;-62
2022/04/06 13:00:03;;;;;;;0.00;0.00;;;;;;;;;;6155461;23;20427;-62
2022/04/06 13:02:30;;;;;;;0.25;0.25;;;;;;;;;;6154247;23;20093;-64
2022/04/06 13:05:15;;;;;;;1.65;1.65;;;;;;;;;;6154912;23;20002;-62
2022/04/06 13:07:42;;;;;;;0.40;0.40;;;;;;;;;;6154269;23;20005;-63
2022/04/06 13:10:11;;;;;;;11.07;0.68;;;;;;;;;;6155194;23;20001;-63
2022/04/06 13:12:37;;;;;;;0.22;0.22;;;;;;;;;;6155272;23;20006;-63
2022/04/06 13:15:03;;;;;;;0.00;0.00;;;;;;;;;;6154827;23;20012;-63
2022/04/06 13:17:29;;;;;;;0.10;0.10;;;;;;;;;;6155074;23;20024;-62
2022/04/06 13:19:54;;;;;;;0.00;0.00;;;;;;;;;;6154847;23;20442;-62
2022/04/06 13:22:19;;;;;;;1.33;1.23;;;;;;;;;;6154659;23;19997;-61
2022/04/06 13:24:45;;;;;;;0.13;0.13;;;;;;;;;;6155089;23;20013;-62
2022/04/06 13:27:11;;;;;;;0.00;0.00;;;;;;;;;;6128863;23;20030;-62
2022/04/06 13:29:36;;;;;;;0.15;0.15;;;;;;;;;;6154937;23;20001;-63
2022/04/06 13:32:03;;;;;;;2.05;0.52;;;;;;;;;;6154349;23;20320;-63
2022/04/06 13:34:28;;;;;;;0.00;0.00;;;;;;;;;;6154718;23;19994;-63
2022/04/06 13:36:54;;;;;;;0.00;0.00;;;;;;;;;;6154548;23;20004;-63
2022/04/06 13:39:20;;;;;;;0.15;0.15;;;;;;;;;;6154342;23;19997;-63
2022/04/06 13:41:48;;;;;;;0.47;0.47;;;;;;;;;;6154399;23;20016;-63
2022/04/06 13:44:14;;;;;;;0.00;0.00;;;;;;;;;;6153620;23;19997;-63
2022/04/06 13:46:40;;;;;;;0.00;0.00;;;;;;;;;;6153777;23;20014;-63
2022/04/06 13:49:05;;;;;;;0.35;0.20;;;;;;;;;;6153016;23;20307;-63
2022/04/06 13:51:31;;;;;;;0.45;0.30;;;;;;;;;;6154341;23;20004;-62
2022/04/06 13:53:56;;;;;;;0.00;0.00;;;;;;;;;;6153752;23;20063;-64
2022/04/06 13:56:21;;;;;;;4.20;3.50;;;;;;;;;;6154438;23;20015;-64
2022/04/06 13:58:46;;;;;;;0.45;0.45;;;;;;;;;;6154549;23;20001;-63
2022/04/06 14:01:12;;;;;;;0.08;0.08;;;;;;;;;;6154029;23;20080;-64
2022/04/06 14:03:39;;;;;;;0.10;0.10;;;;;;;;;;6152795;23;20041;-64
2022/04/06 14:06:04;;;;;;;0.80;0.38;;;;;;;;;;6152792;23;20013;-64
2022/04/06 14:08:31;;;;;;;0.90;0.47;;;;;;;;;;6155157;23;20002;-63
2022/04/06 14:10:56;;;;;;;0.35;0.35;;;;;;;;;;6155388;23;20120;-63
2022/04/06 14:13:21;;;;;;;0.10;0.10;;;;;;;;;;6154150;23;20389;-63
2022/04/06 14:15:47;;;;;;;0.68;0.57;;;;;;;;;;6154294;23;20009;-64
2022/04/06 14:18:13;;;;;;;0.00;0.00;;;;;;;;;;6152773;23;20017;-63
2022/04/06 14:20:38;;;;;;;0.00;0.00;;;;;;;;;;6152469;23;20001;-63
2022/04/06 14:23:03;;;;;;;0.15;0.15;;;;;;;;;;6148363;23;20005;-65
2022/04/06 14:25:29;;;;;;;0.00;0.00;;;;;;;;;;6152939;23;20051;-64
2022/04/06 14:27:54;;;;;;;0.00;0.00;;;;;;;;;;6152847;23;20002;-62
2022/04/06 14:30:19;;;;;;;0.00;0.00;;;;;;;;;;6125785;23;20033;-63
2022/04/06 14:32:45;;;;;;;0.00;0.00;;;;;;;;;;6153172;23;20058;-64
2022/04/06 14:35:12;;;;;;;0.00;0.00;;;;;;;;;;6153254;23;20001;-63
2022/04/06 14:37:39;;;;;;;0.28;0.20;;;;;;;;;;6154371;23;20374;-65
2022/04/06 14:40:04;;;;;;;1.00;0.28;;;;;;;;;;6152911;23;20009;-63
2022/04/06 14:42:30;;;;;;;0.00;0.00;;;;;;;;;;6153421;23;20423;-63
2022/04/06 14:44:55;;;;;;;0.55;0.55;;;;;;;;;;6152470;23;20081;-63
2022/04/06 14:47:22;;;;;;;0.00;0.00;;;;;;;;;;6152595;23;20001;-63
2022/04/06 14:49:47;;;;;;;0.32;0.32;;;;;;;;;;6152693;23;19997;-63